Weather History for KCIN - May, 2014

Change the Weather History Date:

Monday, May 19, 2014

  Actual Average Record
Temperature  
Mean Temperature 67 °F -  
Max Temperature 77 °F 74 °F 93 °F (1975)
Min Temperature 57 °F 50 °F 35 °F (1952)
Cooling Degree Days 2    
Growing Degree Days 17 (Base 50)    
Moisture  
Dew Point 54 °F    
Average Humidity 65    
Maximum Humidity 78    
Minimum Humidity 52    
Precipitation  
Precipitation 0.00 in - - ()
Sea Level Pressure  
Sea Level Pressure 29.79 in    
Wind  
Wind Speed 16 mph (SSE)    
Max Wind Speed 28 mph    
Max Gust Speed 36 mph    
Visibility 10 miles    
Events Rain    
Averages and records for this station are not official NWS values.
T = Trace of Precipitation, MM = Missing Value Source: NWS Daily Summary

Daily Weather History Graph

Daily Weather History Graph

Search for Another Location

Airport or City:

Trip Planner

Search our weather history database for the weather conditions in past years. The results will help you decide how hot, cold, wet, or windy it might be!

Date:

Astronomy

May. 19, 2014 Rise Set
Actual Time 5:54 AM CDT 8:37 PM CDT
Civil Twilight 5:22 AM CDT 9:09 PM CDT
Nautical Twilight 4:41 AM CDT 9:50 PM CDT
Astronomical Twilight 3:55 AM CDT 10:37 PM CDT
Moon 12:23 AM CDT (5/19) 10:54 AM CDT (5/19)
Length of Visible Light 15h 47m
Length of Day
14h 42m
Waning Gibbous, 71% of the Moon is Illuminated
May 19
Waning Gibbous
May 21
Last Quarter
May 28
New
Jun 5
First Quarter
Jun 12
Full

Hourly Weather History & Observations

Time (CDT) Temp. Dew Point Humidity Pressure Visibility Wind Dir Wind Speed Gust Speed Precip Events Conditions
12:15 AM 60.8 °F 42.8 °F 52% 29.98 in 10.0 mi SSE 15.0 mph - N/A   Overcast
12:35 AM 60.8 °F 42.8 °F 52% 29.98 in 10.0 mi SSE 16.1 mph - N/A   Overcast
1:15 AM 60.8 °F 42.8 °F 52% 29.97 in 10.0 mi SSE 15.0 mph 21.9 mph N/A   Overcast
1:35 AM 60.8 °F 42.8 °F 52% 29.96 in 10.0 mi SSE 18.4 mph - N/A   Overcast
1:55 AM 60.8 °F 42.8 °F 52% 29.96 in 10.0 mi SSE 16.1 mph - N/A   Overcast
2:15 AM 60.8 °F 42.8 °F 52% 29.95 in 10.0 mi SSE 15.0 mph - N/A   Overcast
2:35 AM 60.8 °F 42.8 °F 52% 29.94 in 10.0 mi SE 16.1 mph 23.0 mph N/A   Overcast
2:55 AM 60.8 °F 42.8 °F 52% 29.93 in 10.0 mi SE 17.3 mph - N/A   Overcast
3:15 AM 60.8 °F 42.8 °F 52% 29.93 in 10.0 mi SE 17.3 mph - N/A   Overcast
3:35 AM 59.0 °F 42.8 °F 55% 29.92 in 10.0 mi SE 16.1 mph - N/A   Overcast
3:55 AM 59.0 °F 42.8 °F 55% 29.92 in 10.0 mi SE 15.0 mph - N/A   Overcast
4:35 AM 59.0 °F 42.8 °F 55% 29.91 in 10.0 mi SSE 18.4 mph - N/A   Overcast
4:55 AM 59.0 °F 44.6 °F 59% 29.90 in 10.0 mi SSE 17.3 mph - N/A   Mostly Cloudy
5:15 AM 59.0 °F 44.6 °F 59% 29.89 in 10.0 mi SE 18.4 mph - N/A   Overcast
5:35 AM 59.0 °F 44.6 °F 59% 29.89 in 10.0 mi SE 18.4 mph 24.2 mph N/A   Overcast
5:55 AM 59.0 °F 46.4 °F 63% 29.88 in 10.0 mi SSE 16.1 mph 21.9 mph N/A Rain Light Rain
6:15 AM 57.2 °F 48.2 °F 72% 29.87 in 10.0 mi SE 15.0 mph - N/A   Overcast
6:35 AM 57.2 °F 48.2 °F 72% 29.86 in 9.0 mi SE 17.3 mph - N/A   Mostly Cloudy
6:55 AM 57.2 °F 48.2 °F 72% 29.85 in 10.0 mi SE 15.0 mph - N/A   Scattered Clouds
7:15 AM 59.0 °F 50.0 °F 72% 29.85 in 10.0 mi SE 15.0 mph - N/A   Scattered Clouds
7:35 AM 59.0 °F 50.0 °F 72% 29.84 in 10.0 mi SE 18.4 mph 26.5 mph N/A   Mostly Cloudy
8:35 AM 59.0 °F 51.8 °F 77% 29.84 in 10.0 mi SE 17.3 mph 23.0 mph N/A   Overcast
9:35 AM 60.8 °F 53.6 °F 77% 29.84 in 10.0 mi SSE 23.0 mph - N/A   Overcast
9:55 AM 60.8 °F 53.6 °F 77% 29.83 in 10.0 mi South 19.6 mph 27.6 mph N/A   Overcast
10:15 AM 62.6 °F 55.4 °F 77% 29.80 in 10.0 mi SSE 20.7 mph - N/A   Overcast
10:35 AM 62.6 °F 55.4 °F 77% 29.78 in 10.0 mi SSE 23.0 mph 29.9 mph N/A   Overcast
10:55 AM 64.4 °F 55.4 °F 73% 29.77 in 10.0 mi SSE 26.5 mph 35.7 mph N/A   Overcast
11:15 AM 64.4 °F 55.4 °F 73% 29.76 in 10.0 mi South 21.9 mph 32.2 mph N/A   Overcast
11:35 AM 64.4 °F 55.4 °F 73% 29.76 in 10.0 mi South 27.6 mph - N/A   Overcast
11:55 AM 66.2 °F 55.4 °F 68% 29.75 in 10.0 mi SSE 26.5 mph - N/A   Overcast
12:15 PM 66.2 °F 55.4 °F 68% 29.75 in 10.0 mi SSE 26.5 mph - N/A   Overcast
12:35 PM 66.2 °F 57.2 °F 73% 29.74 in 10.0 mi South 26.5 mph 33.4 mph N/A   Overcast
12:55 PM 66.2 °F 57.2 °F 73% 29.74 in 10.0 mi South 21.9 mph 33.4 mph N/A   Overcast
1:15 PM 66.2 °F 57.2 °F 73% 29.73 in 10.0 mi SSE 26.5 mph 32.2 mph N/A   Overcast
1:35 PM 68.0 °F 57.2 °F 68% 29.73 in 10.0 mi South 20.7 mph 32.2 mph N/A   Overcast
1:55 PM 69.8 °F 57.2 °F 64% 29.72 in 10.0 mi South 19.6 mph 26.5 mph N/A   Overcast
2:15 PM 69.8 °F 57.2 °F 64% 29.73 in 9.0 mi South 20.7 mph 29.9 mph N/A   Overcast
2:35 PM 71.6 °F 59.0 °F 64% 29.72 in 10.0 mi South 19.6 mph 26.5 mph N/A   Overcast
2:55 PM 69.8 °F 59.0 °F 68% 29.72 in 10.0 mi South 16.1 mph 23.0 mph N/A   Overcast
3:15 PM 71.6 °F 59.0 °F 64% 29.71 in 10.0 mi SSE 15.0 mph - N/A   Overcast
3:35 PM 71.6 °F 59.0 °F 64% 29.70 in 10.0 mi SSE 12.7 mph - N/A   Overcast
3:55 PM 73.4 °F 59.0 °F 61% 29.69 in 10.0 mi South 15.0 mph - N/A   Overcast
4:15 PM 73.4 °F 59.0 °F 61% 29.69 in 9.0 mi South 15.0 mph - N/A   Overcast
4:35 PM 75.2 °F 59.0 °F 57% 29.68 in 10.0 mi SSE 17.3 mph - N/A   Overcast
4:55 PM 75.2 °F 59.0 °F 57% 29.68 in 10.0 mi South 19.6 mph - N/A   Overcast
5:15 PM 77.0 °F 59.0 °F 54% 29.67 in 10.0 mi South 20.7 mph 27.6 mph N/A   Overcast
5:55 PM 77.0 °F 59.0 °F 54% 29.68 in 10.0 mi South 13.8 mph 20.7 mph N/A   Overcast
6:15 PM 77.0 °F 59.0 °F 54% 29.69 in 10.0 mi South 15.0 mph - N/A   Overcast
6:35 PM 75.2 °F 59.0 °F 57% 29.70 in 10.0 mi South 9.2 mph - N/A   Overcast
6:55 PM 75.2 °F 59.0 °F 57% 29.70 in 10.0 mi South 8.1 mph - N/A   Overcast
7:15 PM 75.2 °F 59.0 °F 57% 29.70 in 10.0 mi SSE 8.1 mph - N/A   Overcast
7:35 PM 73.4 °F 60.8 °F 65% 29.70 in 10.0 mi SE 5.8 mph - N/A   Overcast
7:55 PM 73.4 °F 60.8 °F 65% 29.70 in 10.0 mi SE 4.6 mph - N/A   Overcast
8:15 PM 71.6 °F 60.8 °F 69% 29.70 in 10.0 mi SE 9.2 mph - N/A   Overcast
8:35 PM 71.6 °F 59.0 °F 64% 29.70 in - SE 6.9 mph - N/A   Overcast
8:55 PM 69.8 °F 59.0 °F 68% 29.71 in 10.0 mi SE 6.9 mph - N/A   Overcast
9:15 PM 69.8 °F 59.0 °F 68% 29.72 in 10.0 mi SSE 8.1 mph - N/A   Overcast
9:35 PM 69.8 °F 59.0 °F 68% 29.73 in 10.0 mi SE 8.1 mph - N/A   Overcast
9:55 PM 68.0 °F 59.0 °F 73% 29.73 in 10.0 mi SE 5.8 mph - N/A   Overcast
10:15 PM 68.0 °F 59.0 °F 73% 29.74 in 10.0 mi SE 6.9 mph - N/A   Overcast
10:35 PM 66.2 °F 59.0 °F 78% 29.74 in 10.0 mi SE 4.6 mph - N/A   Overcast
10:55 PM 66.2 °F 59.0 °F 78% 29.74 in 10.0 mi SE 4.6 mph - N/A   Overcast
11:15 PM 66.2 °F 59.0 °F 78% 29.74 in 10.0 mi SSE 5.8 mph - N/A   Overcast
11:35 PM 66.2 °F 59.0 °F 78% 29.74 in 10.0 mi SSE 4.6 mph - N/A   Overcast
11:55 PM 66.2 °F 59.0 °F 78% 29.74 in 10.0 mi Calm Calm - N/A   Overcast